BAW964H EGLL-EDDH
Flight info
| Callsign | BAW964H |
|---|---|
| Flight time | 1h 9m |
| Altitude | 35000 |
| Route | BPK Q295 SOMVA DCT MAVAS DCT GASTU DCT OSTOR/N0360F230 T904 RIBSO RIBSO3P |
| Aircraft | A319/M-SDE3FGHIRWY/LB1 |
Departure
| Time | 2026-05-04 13:43 |
|---|---|
| Airport | London Heathrow Airport (EGLL) |
Arrival
| Time | 2026-05-04 14:53 |
|---|---|
| Airport | Hamburg Helmut Schmidt Airport (EDDH) |
| Time | Latitude | Longitude | Altitude | Speed | Heading |
|---|---|---|---|---|---|
| 2026-05-04 13:12 | 51.46929 | -0.48717 | 87 ft | 0 kts | 360° |
| 2026-05-04 13:32 | 51.46917 | -0.48717 | 90 ft | 4 kts | 2° |
| 2026-05-04 13:32 | 51.46895 | -0.48718 | 87 ft | 3 kts | 3° |
| 2026-05-04 13:32 | 51.46879 | -0.48730 | 87 ft | 4 kts | 81° |
| 2026-05-04 13:33 | 51.46877 | -0.48770 | 85 ft | 4 kts | 89° |
| 2026-05-04 13:33 | 51.46877 | -0.48809 | 85 ft | 1 kts | 90° |
| 2026-05-04 13:33 | 51.46877 | -0.48810 | 85 ft | 0 kts | 90° |
| 2026-05-04 13:36 | 51.46877 | -0.48807 | 85 ft | 1 kts | 90° |
| 2026-05-04 13:36 | 51.46872 | -0.48766 | 90 ft | 5 kts | 123° |
| 2026-05-04 13:36 | 51.46816 | -0.48752 | 85 ft | 12 kts | 179° |
| 2026-05-04 13:37 | 51.46723 | -0.48750 | 85 ft | 15 kts | 179° |
| 2026-05-04 13:37 | 51.46654 | -0.48696 | 87 ft | 12 kts | 108° |
| 2026-05-04 13:37 | 51.46652 | -0.48502 | 88 ft | 21 kts | 90° |
| 2026-05-04 13:37 | 51.46653 | -0.48343 | 88 ft | 23 kts | 89° |
| 2026-05-04 13:38 | 51.46654 | -0.47972 | 84 ft | 24 kts | 90° |
| 2026-05-04 13:38 | 51.46655 | -0.47702 | 81 ft | 26 kts | 89° |
| 2026-05-04 13:38 | 51.46656 | -0.47525 | 81 ft | 24 kts | 89° |
| 2026-05-04 13:38 | 51.46657 | -0.47249 | 82 ft | 26 kts | 89° |
| 2026-05-04 13:39 | 51.46659 | -0.46961 | 89 ft | 26 kts | 89° |
| 2026-05-04 13:39 | 51.46659 | -0.46692 | 89 ft | 23 kts | 90° |
| 2026-05-04 13:39 | 51.46660 | -0.46424 | 88 ft | 26 kts | 90° |
| 2026-05-04 13:39 | 51.46659 | -0.46118 | 86 ft | 27 kts | 90° |
| 2026-05-04 13:40 | 51.46661 | -0.45829 | 81 ft | 27 kts | 89° |
| 2026-05-04 13:40 | 51.46663 | -0.45577 | 82 ft | 23 kts | 90° |
| 2026-05-04 13:40 | 51.46664 | -0.45313 | 85 ft | 24 kts | 90° |
| 2026-05-04 13:40 | 51.46665 | -0.45040 | 88 ft | 25 kts | 90° |
| 2026-05-04 13:41 | 51.46665 | -0.44794 | 89 ft | 22 kts | 90° |
| 2026-05-04 13:41 | 51.46666 | -0.44527 | 87 ft | 26 kts | 89° |
| 2026-05-04 13:41 | 51.46667 | -0.44231 | 83 ft | 25 kts | 90° |
| 2026-05-04 13:42 | 51.46667 | -0.43881 | 82 ft | 11 kts | 99° |
| 2026-05-04 13:42 | 51.46594 | -0.43828 | 80 ft | 15 kts | 182° |
| 2026-05-04 13:42 | 51.46504 | -0.43842 | 82 ft | 10 kts | 209° |
| 2026-05-04 13:42 | 51.46494 | -0.43968 | 82 ft | 22 kts | 270° |
| 2026-05-04 13:43 | 51.46493 | -0.44543 | 87 ft | 81 kts | 269° |
| 2026-05-04 13:43 | 51.46488 | -0.45753 | 82 ft | 135 kts | 269° |
| 2026-05-04 13:43 | 51.46469 | -0.47474 | 324 ft | 159 kts | 268° |
| 2026-05-04 13:43 | 51.46436 | -0.49256 | 989 ft | 160 kts | 270° |
| 2026-05-04 13:44 | 51.46584 | -0.51053 | 1505 ft | 171 kts | 291° |
| 2026-05-04 13:44 | 51.47144 | -0.52866 | 1839 ft | 193 kts | 299° |
| 2026-05-04 13:44 | 51.47807 | -0.54901 | 2206 ft | 219 kts | 298° |
| 2026-05-04 13:44 | 51.48547 | -0.57191 | 2734 ft | 243 kts | 298° |
| 2026-05-04 13:45 | 51.49354 | -0.59700 | 3464 ft | 259 kts | 297° |
| 2026-05-04 13:45 | 51.50191 | -0.62297 | 4458 ft | 264 kts | 299° |
| 2026-05-04 13:45 | 51.51370 | -0.64581 | 5443 ft | 270 kts | 321° |
| 2026-05-04 13:45 | 51.53062 | -0.65969 | 6009 ft | 278 kts | 346° |
| 2026-05-04 13:46 | 51.54973 | -0.65959 | 6274 ft | 278 kts | 14° |
| 2026-05-04 13:46 | 51.56694 | -0.64567 | 6524 ft | 281 kts | 40° |
| 2026-05-04 13:46 | 51.57871 | -0.62091 | 6771 ft | 282 kts | 67° |
| 2026-05-04 13:46 | 51.58490 | -0.59091 | 6960 ft | 284 kts | 74° |
| 2026-05-04 13:47 | 51.59061 | -0.56047 | 7003 ft | 285 kts | 74° |
| 2026-05-04 13:47 | 51.59630 | -0.52996 | 7009 ft | 284 kts | 74° |
| 2026-05-04 13:47 | 51.60195 | -0.49960 | 7009 ft | 284 kts | 74° |
| 2026-05-04 13:47 | 51.60762 | -0.46919 | 7008 ft | 284 kts | 74° |
| 2026-05-04 13:48 | 51.61324 | -0.43907 | 7008 ft | 284 kts | 74° |
| 2026-05-04 13:48 | 51.61892 | -0.40866 | 7009 ft | 284 kts | 74° |
| 2026-05-04 13:48 | 51.62460 | -0.37823 | 7010 ft | 285 kts | 74° |
| 2026-05-04 13:48 | 51.63030 | -0.34770 | 7064 ft | 284 kts | 74° |
| 2026-05-04 13:49 | 51.63600 | -0.31706 | 7170 ft | 288 kts | 74° |
| 2026-05-04 13:49 | 51.64175 | -0.28601 | 8065 ft | 289 kts | 74° |
| 2026-05-04 13:49 | 51.64752 | -0.25485 | 9017 ft | 292 kts | 74° |
| 2026-05-04 13:49 | 51.65336 | -0.22328 | 9972 ft | 296 kts | 74° |
| 2026-05-04 13:50 | 51.65937 | -0.19063 | 10449 ft | 316 kts | 74° |
| 2026-05-04 13:50 | 51.66580 | -0.15558 | 10941 ft | 329 kts | 74° |
| 2026-05-04 13:50 | 51.67232 | -0.12014 | 11795 ft | 331 kts | 74° |
| 2026-05-04 13:50 | 51.67887 | -0.08438 | 12607 ft | 335 kts | 74° |
| 2026-05-04 13:51 | 51.68553 | -0.04803 | 13431 ft | 339 kts | 74° |
| 2026-05-04 13:51 | 51.69229 | -0.01107 | 13961 ft | 353 kts | 74° |
| 2026-05-04 13:51 | 51.69942 | 0.02816 | 14050 ft | 375 kts | 74° |
| 2026-05-04 13:51 | 51.70688 | 0.06909 | 14504 ft | 384 kts | 74° |
| 2026-05-04 13:52 | 51.72200 | 0.15220 | 15750 ft | 391 kts | 75° |
| 2026-05-04 13:52 | 51.72964 | 0.19452 | 16388 ft | 395 kts | 75° |
| 2026-05-04 13:52 | 51.73732 | 0.23721 | 17067 ft | 397 kts | 75° |
| 2026-05-04 13:53 | 51.74506 | 0.28021 | 17744 ft | 400 kts | 75° |
| 2026-05-04 13:53 | 51.75284 | 0.32352 | 18403 ft | 403 kts | 75° |
| 2026-05-04 13:53 | 51.76067 | 0.36714 | 18974 ft | 407 kts | 75° |
| 2026-05-04 13:54 | 51.77650 | 0.45578 | 20068 ft | 415 kts | 75° |
| 2026-05-04 13:54 | 51.78448 | 0.50072 | 20585 ft | 418 kts | 75° |
| 2026-05-04 13:54 | 51.80060 | 0.59196 | 21580 ft | 426 kts | 75° |
| 2026-05-04 13:55 | 51.80877 | 0.63818 | 22062 ft | 430 kts | 74° |
| 2026-05-04 13:55 | 51.83122 | 0.72873 | 22992 ft | 437 kts | 68° |
| 2026-05-04 13:55 | 51.84304 | 0.77418 | 23457 ft | 440 kts | 68° |
| 2026-05-04 13:56 | 51.85486 | 0.82002 | 23851 ft | 443 kts | 68° |
| 2026-05-04 13:56 | 51.86677 | 0.86624 | 24233 ft | 446 kts | 68° |
| 2026-05-04 13:56 | 51.89085 | 0.95969 | 24997 ft | 452 kts | 68° |
| 2026-05-04 13:57 | 51.90299 | 1.00682 | 25341 ft | 456 kts | 68° |
| 2026-05-04 13:57 | 51.91519 | 1.05447 | 25694 ft | 460 kts | 68° |
| 2026-05-04 13:58 | 51.95198 | 1.19951 | 26811 ft | 467 kts | 69° |
| 2026-05-04 13:58 | 51.97685 | 1.29742 | 27519 ft | 472 kts | 69° |
| 2026-05-04 13:58 | 51.98939 | 1.34682 | 27859 ft | 474 kts | 69° |
| 2026-05-04 13:59 | 52.00179 | 1.39590 | 28187 ft | 477 kts | 69° |
| 2026-05-04 13:59 | 52.01434 | 1.44582 | 28525 ft | 479 kts | 69° |
| 2026-05-04 13:59 | 52.03957 | 1.54665 | 29159 ft | 483 kts | 69° |
| 2026-05-04 14:00 | 52.05224 | 1.59741 | 29500 ft | 485 kts | 69° |
| 2026-05-04 14:00 | 52.07748 | 1.69885 | 30364 ft | 483 kts | 70° |
| 2026-05-04 14:00 | 52.09006 | 1.74963 | 30751 ft | 483 kts | 70° |
| 2026-05-04 14:01 | 52.10259 | 1.80026 | 31134 ft | 482 kts | 70° |
| 2026-05-04 14:01 | 52.11496 | 1.85028 | 31519 ft | 482 kts | 70° |
| 2026-05-04 14:01 | 52.13984 | 1.95130 | 32310 ft | 480 kts | 70° |
| 2026-05-04 14:02 | 52.15222 | 2.00181 | 32673 ft | 481 kts | 70° |
| 2026-05-04 14:02 | 52.16462 | 2.05255 | 33038 ft | 481 kts | 70° |
| 2026-05-04 14:02 | 52.17699 | 2.10317 | 33427 ft | 481 kts | 70° |
| 2026-05-04 14:02 | 52.18935 | 2.15387 | 33825 ft | 481 kts | 70° |
| 2026-05-04 14:03 | 52.20166 | 2.20448 | 34186 ft | 481 kts | 70° |
| 2026-05-04 14:03 | 52.21397 | 2.25512 | 34535 ft | 480 kts | 70° |
| 2026-05-04 14:03 | 52.22623 | 2.30566 | 34882 ft | 480 kts | 70° |
| 2026-05-04 14:03 | 52.23845 | 2.35627 | 35006 ft | 478 kts | 70° |
| 2026-05-04 14:04 | 52.26264 | 2.45701 | 35029 ft | 476 kts | 70° |
| 2026-05-04 14:04 | 52.28674 | 2.55783 | 35024 ft | 477 kts | 70° |
| 2026-05-04 14:05 | 52.31916 | 2.71147 | 35021 ft | 477 kts | 76° |
| 2026-05-04 14:06 | 52.33753 | 2.81566 | 35015 ft | 477 kts | 76° |
| 2026-05-04 14:06 | 52.35592 | 2.91993 | 35016 ft | 476 kts | 76° |
| 2026-05-04 14:07 | 52.37406 | 3.02416 | 34993 ft | 477 kts | 76° |
| 2026-05-04 14:07 | 52.39191 | 3.12812 | 34990 ft | 478 kts | 77° |
| 2026-05-04 14:08 | 52.41639 | 3.22970 | 34994 ft | 481 kts | 66° |
| 2026-05-04 14:08 | 52.44465 | 3.32929 | 35001 ft | 482 kts | 67° |
| 2026-05-04 14:09 | 52.48669 | 3.47921 | 35013 ft | 482 kts | 66° |
| 2026-05-04 14:10 | 52.52853 | 3.62968 | 34987 ft | 484 kts | 67° |
| 2026-05-04 14:10 | 52.55645 | 3.73042 | 34990 ft | 485 kts | 67° |
| 2026-05-04 14:11 | 52.58435 | 3.83142 | 34994 ft | 485 kts | 67° |
| 2026-05-04 14:11 | 52.62607 | 3.98324 | 34997 ft | 485 kts | 67° |
| 2026-05-04 14:12 | 52.65376 | 4.08488 | 34980 ft | 487 kts | 67° |
| 2026-05-04 14:13 | 52.69527 | 4.23784 | 34998 ft | 488 kts | 67° |
| 2026-05-04 14:13 | 52.72293 | 4.34011 | 35002 ft | 488 kts | 67° |
| 2026-05-04 14:14 | 52.75046 | 4.44244 | 34999 ft | 488 kts | 67° |
| 2026-05-04 14:14 | 52.79139 | 4.59559 | 35006 ft | 488 kts | 67° |
| 2026-05-04 14:15 | 52.84584 | 4.80109 | 35021 ft | 487 kts | 67° |
| 2026-05-04 14:16 | 52.88647 | 4.95523 | 35018 ft | 487 kts | 68° |
| 2026-05-04 14:17 | 52.92681 | 5.10976 | 35005 ft | 487 kts | 68° |
| 2026-05-04 14:18 | 52.96704 | 5.26497 | 34992 ft | 489 kts | 68° |
| 2026-05-04 14:19 | 53.02039 | 5.47264 | 34988 ft | 489 kts | 68° |
| 2026-05-04 14:19 | 53.04692 | 5.57660 | 34990 ft | 489 kts | 68° |
| 2026-05-04 14:20 | 53.07349 | 5.68075 | 34995 ft | 489 kts | 68° |
| 2026-05-04 14:20 | 53.10001 | 5.78507 | 35004 ft | 490 kts | 68° |
| 2026-05-04 14:21 | 53.13952 | 5.94215 | 35020 ft | 490 kts | 68° |
| 2026-05-04 14:21 | 53.16572 | 6.04690 | 35019 ft | 490 kts | 68° |
| 2026-05-04 14:22 | 53.19186 | 6.15181 | 34997 ft | 490 kts | 68° |
| 2026-05-04 14:22 | 53.21777 | 6.25637 | 34993 ft | 491 kts | 68° |
| 2026-05-04 14:23 | 53.25675 | 6.41473 | 34989 ft | 492 kts | 68° |
| 2026-05-04 14:24 | 53.27833 | 6.50278 | 34998 ft | 492 kts | 68° |
| 2026-05-04 14:24 | 53.30424 | 6.60875 | 34991 ft | 492 kts | 68° |
| 2026-05-04 14:25 | 53.32999 | 6.71486 | 34983 ft | 493 kts | 68° |
| 2026-05-04 14:25 | 53.36852 | 6.87452 | 35001 ft | 493 kts | 68° |
| 2026-05-04 14:26 | 53.39410 | 6.98129 | 35006 ft | 494 kts | 68° |
| 2026-05-04 14:26 | 53.41966 | 7.08827 | 35011 ft | 494 kts | 68° |
| 2026-05-04 14:27 | 53.44503 | 7.19460 | 34999 ft | 494 kts | 68° |
| 2026-05-04 14:27 | 53.47034 | 7.30193 | 34992 ft | 494 kts | 68° |
| 2026-05-04 14:28 | 53.49551 | 7.40942 | 34994 ft | 495 kts | 68° |
| 2026-05-04 14:28 | 53.52069 | 7.51699 | 35023 ft | 495 kts | 68° |
| 2026-05-04 14:29 | 53.57088 | 7.73275 | 35019 ft | 495 kts | 69° |
| 2026-05-04 14:30 | 53.59566 | 7.84059 | 34813 ft | 490 kts | 69° |
| 2026-05-04 14:30 | 53.61976 | 7.94592 | 34354 ft | 474 kts | 69° |
| 2026-05-04 14:31 | 53.63158 | 7.99761 | 33799 ft | 471 kts | 69° |
| 2026-05-04 14:31 | 53.65299 | 8.10047 | 32474 ft | 465 kts | 72° |
| 2026-05-04 14:32 | 53.67204 | 8.20392 | 31195 ft | 459 kts | 74° |
| 2026-05-04 14:32 | 53.68133 | 8.25522 | 30525 ft | 455 kts | 74° |
| 2026-05-04 14:32 | 53.69070 | 8.30612 | 29750 ft | 453 kts | 74° |
| 2026-05-04 14:32 | 53.70014 | 8.35651 | 28952 ft | 448 kts | 73° |
| 2026-05-04 14:33 | 53.70958 | 8.40643 | 28085 ft | 447 kts | 72° |
| 2026-05-04 14:33 | 53.71915 | 8.45695 | 26727 ft | 457 kts | 72° |
| 2026-05-04 14:33 | 53.72882 | 8.50819 | 25751 ft | 456 kts | 72° |
| 2026-05-04 14:33 | 53.73836 | 8.55904 | 24926 ft | 452 kts | 72° |
| 2026-05-04 14:34 | 53.74777 | 8.60939 | 24170 ft | 446 kts | 72° |
| 2026-05-04 14:34 | 53.75706 | 8.65911 | 23426 ft | 441 kts | 72° |
| 2026-05-04 14:34 | 53.76608 | 8.70759 | 22619 ft | 435 kts | 72° |
| 2026-05-04 14:34 | 53.77508 | 8.75609 | 21844 ft | 428 kts | 72° |
| 2026-05-04 14:35 | 53.78384 | 8.80341 | 21308 ft | 415 kts | 72° |
| 2026-05-04 14:35 | 53.79235 | 8.84960 | 20642 ft | 407 kts | 72° |
| 2026-05-04 14:35 | 53.80067 | 8.89495 | 19937 ft | 401 kts | 72° |
| 2026-05-04 14:35 | 53.80886 | 8.93972 | 19205 ft | 395 kts | 72° |
| 2026-05-04 14:36 | 53.81693 | 8.98393 | 18516 ft | 390 kts | 72° |
| 2026-05-04 14:36 | 53.82467 | 9.02767 | 17763 ft | 385 kts | 76° |
| 2026-05-04 14:36 | 53.82785 | 9.07216 | 17011 ft | 378 kts | 91° |
| 2026-05-04 14:36 | 53.82584 | 9.11610 | 16258 ft | 372 kts | 97° |
| 2026-05-04 14:37 | 53.82327 | 9.15938 | 15531 ft | 367 kts | 97° |
| 2026-05-04 14:37 | 53.82078 | 9.20204 | 14836 ft | 362 kts | 97° |
| 2026-05-04 14:37 | 53.81833 | 9.24417 | 14152 ft | 357 kts | 97° |
| 2026-05-04 14:37 | 53.81592 | 9.28571 | 13442 ft | 352 kts | 96° |
| 2026-05-04 14:38 | 53.81382 | 9.32669 | 12706 ft | 348 kts | 92° |
| 2026-05-04 14:38 | 53.81598 | 9.36708 | 12016 ft | 343 kts | 78° |
| 2026-05-04 14:38 | 53.82085 | 9.40632 | 11312 ft | 339 kts | 78° |
| 2026-05-04 14:38 | 53.82562 | 9.44514 | 10636 ft | 335 kts | 78° |
| 2026-05-04 14:39 | 53.83026 | 9.48306 | 10284 ft | 320 kts | 78° |
| 2026-05-04 14:39 | 53.83469 | 9.51946 | 10138 ft | 313 kts | 79° |
| 2026-05-04 14:39 | 53.83903 | 9.55538 | 9979 ft | 310 kts | 79° |
| 2026-05-04 14:40 | 53.84756 | 9.62669 | 9618 ft | 308 kts | 79° |
| 2026-05-04 14:40 | 53.85174 | 9.66215 | 9452 ft | 306 kts | 79° |
| 2026-05-04 14:40 | 53.85591 | 9.69750 | 9304 ft | 306 kts | 79° |
| 2026-05-04 14:40 | 53.86007 | 9.73282 | 9162 ft | 306 kts | 79° |
| 2026-05-04 14:41 | 53.86424 | 9.76815 | 9014 ft | 305 kts | 79° |
| 2026-05-04 14:41 | 53.86676 | 9.80371 | 8884 ft | 304 kts | 92° |
| 2026-05-04 14:41 | 53.86217 | 9.87467 | 8561 ft | 302 kts | 98° |
| 2026-05-04 14:42 | 53.85714 | 9.94513 | 8241 ft | 301 kts | 98° |
| 2026-05-04 14:42 | 53.85465 | 9.98024 | 8084 ft | 300 kts | 98° |
| 2026-05-04 14:42 | 53.85217 | 10.01528 | 7925 ft | 299 kts | 98° |
| 2026-05-04 14:43 | 53.84969 | 10.05016 | 7765 ft | 298 kts | 98° |
| 2026-05-04 14:43 | 53.84720 | 10.08493 | 7606 ft | 293 kts | 98° |
| 2026-05-04 14:43 | 53.84481 | 10.11823 | 7468 ft | 276 kts | 98° |
| 2026-05-04 14:43 | 53.84258 | 10.14934 | 7263 ft | 264 kts | 97° |
| 2026-05-04 14:44 | 53.84307 | 10.18010 | 7164 ft | 263 kts | 78° |
| 2026-05-04 14:44 | 53.84911 | 10.20919 | 7038 ft | 261 kts | 59° |
| 2026-05-04 14:44 | 53.85977 | 10.23388 | 6843 ft | 261 kts | 47° |
| 2026-05-04 14:44 | 53.87142 | 10.25734 | 6476 ft | 258 kts | 47° |
| 2026-05-04 14:45 | 53.88289 | 10.28057 | 6099 ft | 256 kts | 47° |
| 2026-05-04 14:45 | 53.89306 | 10.30522 | 5754 ft | 255 kts | 65° |
| 2026-05-04 14:45 | 53.89678 | 10.33458 | 5560 ft | 256 kts | 92° |
| 2026-05-04 14:45 | 53.89267 | 10.36359 | 5406 ft | 253 kts | 120° |
| 2026-05-04 14:46 | 53.88185 | 10.38631 | 5254 ft | 246 kts | 146° |
| 2026-05-04 14:46 | 53.86687 | 10.39884 | 5117 ft | 237 kts | 172° |
| 2026-05-04 14:46 | 53.85064 | 10.39988 | 5073 ft | 236 kts | 195° |
| 2026-05-04 14:46 | 53.83514 | 10.38944 | 5025 ft | 243 kts | 217° |
| 2026-05-04 14:47 | 53.82159 | 10.37337 | 4967 ft | 232 kts | 219° |
| 2026-05-04 14:47 | 53.81019 | 10.35537 | 4913 ft | 217 kts | 233° |
| 2026-05-04 14:47 | 53.80071 | 10.33589 | 4865 ft | 213 kts | 233° |
| 2026-05-04 14:47 | 53.79129 | 10.31652 | 4760 ft | 214 kts | 233° |
| 2026-05-04 14:48 | 53.78185 | 10.29714 | 4535 ft | 212 kts | 233° |
| 2026-05-04 14:48 | 53.77249 | 10.27794 | 4260 ft | 212 kts | 233° |
| 2026-05-04 14:48 | 53.76310 | 10.25870 | 3975 ft | 212 kts | 232° |
| 2026-05-04 14:48 | 53.75379 | 10.23964 | 3688 ft | 210 kts | 233° |
| 2026-05-04 14:49 | 53.74450 | 10.22063 | 3420 ft | 210 kts | 233° |
| 2026-05-04 14:49 | 53.73531 | 10.20183 | 3138 ft | 206 kts | 233° |
| 2026-05-04 14:49 | 53.72626 | 10.18335 | 2857 ft | 201 kts | 232° |
| 2026-05-04 14:49 | 53.71764 | 10.16576 | 2593 ft | 188 kts | 233° |
| 2026-05-04 14:50 | 53.70959 | 10.14936 | 2367 ft | 175 kts | 233° |
| 2026-05-04 14:50 | 53.70213 | 10.13417 | 2126 ft | 163 kts | 234° |
| 2026-05-04 14:50 | 53.69505 | 10.11972 | 1912 ft | 159 kts | 235° |
| 2026-05-04 14:50 | 53.68793 | 10.10519 | 1700 ft | 162 kts | 233° |
| 2026-05-04 14:51 | 53.68072 | 10.09052 | 1476 ft | 162 kts | 234° |
| 2026-05-04 14:51 | 53.67383 | 10.07654 | 1256 ft | 144 kts | 236° |
| 2026-05-04 14:51 | 53.66768 | 10.06406 | 1079 ft | 134 kts | 236° |
| 2026-05-04 14:51 | 53.66180 | 10.05212 | 890 ft | 131 kts | 236° |
| 2026-05-04 14:52 | 53.65600 | 10.04030 | 711 ft | 131 kts | 235° |
| 2026-05-04 14:52 | 53.65017 | 10.02847 | 542 ft | 131 kts | 233° |
| 2026-05-04 14:52 | 53.64434 | 10.01664 | 357 ft | 132 kts | 233° |
| 2026-05-04 14:52 | 53.63851 | 10.00479 | 184 ft | 130 kts | 233° |
| 2026-05-04 14:53 | 53.63281 | 9.99331 | 54 ft | 117 kts | 234° |
| 2026-05-04 14:53 | 53.62897 | 9.98537 | 49 ft | 47 kts | 230° |
| 2026-05-04 14:53 | 53.62770 | 9.98356 | 50 ft | 15 kts | 175° |
| 2026-05-04 14:53 | 53.62693 | 9.98428 | 51 ft | 10 kts | 139° |
| 2026-05-04 14:54 | 53.62666 | 9.98467 | 49 ft | 2 kts | 139° |
| 2026-05-04 14:54 | 53.62669 | 9.98516 | 51 ft | 9 kts | 58° |
| 2026-05-04 14:54 | 53.62719 | 9.98609 | 51 ft | 12 kts | 51° |
| 2026-05-04 14:54 | 53.62780 | 9.98735 | 50 ft | 16 kts | 50° |
| 2026-05-04 14:55 | 53.62855 | 9.98889 | 50 ft | 18 kts | 51° |
| 2026-05-04 14:55 | 53.62941 | 9.99060 | 50 ft | 19 kts | 49° |
| 2026-05-04 14:55 | 53.63008 | 9.99194 | 50 ft | 15 kts | 51° |
| 2026-05-04 14:55 | 53.63077 | 9.99348 | 50 ft | 17 kts | 54° |
| 2026-05-04 14:56 | 53.63150 | 9.99518 | 50 ft | 20 kts | 52° |
| 2026-05-04 14:56 | 53.63214 | 9.99655 | 50 ft | 11 kts | 52° |
| 2026-05-04 14:56 | 53.63202 | 9.99779 | 50 ft | 13 kts | 141° |
| 2026-05-04 14:56 | 53.63116 | 9.99856 | 50 ft | 15 kts | 153° |
| 2026-05-04 14:57 | 53.63016 | 9.99941 | 51 ft | 17 kts | 153° |
| 2026-05-04 14:57 | 53.62930 | 10.00014 | 50 ft | 10 kts | 153° |
| 2026-05-04 14:57 | 53.62920 | 10.00105 | 49 ft | 10 kts | 43° |
| 2026-05-04 14:57 | 53.62990 | 10.00177 | 49 ft | 13 kts | 32° |
| 2026-05-04 14:58 | 53.63058 | 10.00249 | 51 ft | 7 kts | 29° |
| 2026-05-04 14:58 | 53.63081 | 10.00264 | 49 ft | 3 kts | 37° |
| 2026-05-04 14:58 | 53.63080 | 10.00316 | 51 ft | 6 kts | 97° |
| 2026-05-04 14:58 | 53.63076 | 10.00371 | 51 ft | 2 kts | 98° |
| 2026-05-04 14:59 | 53.63075 | 10.00374 | 51 ft | 0 kts | 98° |